createdAt,value
2022-09-28T00:00:54.696Z,1.55
2022-09-28T00:03:21.884Z,1.67
2022-09-28T00:05:49.118Z,1.15
2022-09-28T00:08:16.248Z,1.02
2022-09-28T00:10:43.430Z,1.60
2022-09-28T00:13:10.561Z,1.55
2022-09-28T00:15:37.712Z,1.25
2022-09-28T00:18:04.899Z,2.08
2022-09-28T00:20:32.015Z,1.33
2022-09-28T00:22:59.170Z,1.27
2022-09-28T00:25:26.320Z,1.25
2022-09-28T00:27:53.458Z,1.77
2022-09-28T00:30:20.773Z,1.65
2022-09-28T00:32:47.989Z,2.05
2022-09-28T00:35:15.200Z,1.08
2022-09-28T00:37:42.344Z,1.98
2022-09-28T00:40:09.680Z,0.80
2022-09-28T00:42:36.793Z,1.23
2022-09-28T00:45:04.310Z,2.03
2022-09-28T00:47:49.457Z,1.35
2022-09-28T00:50:25.764Z,1.67
2022-09-28T00:53:04.232Z,1.48
2022-09-28T00:55:43.139Z,1.13
2022-09-28T00:58:14.829Z,0.90
2022-09-28T01:00:42.288Z,1.00
2022-09-28T01:03:10.185Z,1.63
2022-09-28T01:05:39.584Z,1.77
2022-09-28T01:08:08.677Z,1.30
2022-09-28T01:13:03.576Z,1.30
2022-09-28T01:15:36.300Z,1.30
2022-09-28T01:18:25.364Z,2.38
2022-09-28T01:21:05.424Z,2.28
2022-09-28T01:23:56.681Z,2.95
2022-09-28T01:26:36.800Z,1.88
2022-09-28T01:29:18.969Z,1.35
2022-09-28T01:31:52.841Z,2.78
2022-09-28T01:34:39.083Z,1.85
2022-09-28T01:37:09.842Z,1.65
2022-09-28T01:39:42.625Z,1.90
2022-09-28T01:42:19.872Z,2.38
2022-09-28T01:44:50.531Z,1.60
2022-09-28T01:47:21.673Z,1.70
2022-09-28T01:50:18.240Z,1.35
2022-09-28T01:52:56.650Z,1.77
2022-09-28T01:55:33.449Z,1.60
2022-09-28T01:58:12.642Z,1.60
2022-09-28T02:00:44.755Z,1.45
2022-09-28T02:03:17.532Z,2.25
2022-09-28T02:06:00.039Z,2.55
2022-09-28T02:08:34.219Z,2.10
2022-09-28T02:11:05.640Z,2.35
2022-09-28T02:13:37.485Z,2.40
2022-09-28T02:16:16.369Z,1.65
2022-09-28T02:18:45.719Z,2.33
2022-09-28T02:21:31.408Z,2.35
2022-09-28T02:24:05.217Z,3.00
2022-09-28T02:26:37.850Z,2.70
2022-09-28T02:29:05.169Z,3.03
2022-09-28T02:31:32.333Z,1.55
2022-09-28T02:33:59.710Z,2.42
2022-09-28T02:36:28.575Z,3.05
2022-09-28T02:38:58.275Z,2.38
2022-09-28T02:42:05.622Z,2.83
2022-09-28T02:45:00.119Z,2.08
2022-09-28T02:48:01.366Z,1.80
2022-09-28T02:50:58.178Z,5.70
2022-09-28T02:53:59.109Z,1.40
2022-09-28T02:56:54.403Z,2.35
2022-09-28T02:59:33.532Z,1.60
2022-09-28T03:02:21.979Z,2.25
2022-09-28T03:05:02.653Z,2.15
2022-09-28T03:07:59.229Z,2.20
2022-09-28T03:10:41.952Z,2.15
2022-09-28T03:13:09.744Z,2.20
2022-09-28T03:15:37.889Z,2.58
2022-09-28T03:18:05.016Z,2.70
2022-09-28T03:20:33.373Z,3.00
2022-09-28T03:23:23.235Z,3.42
2022-09-28T03:25:48.314Z,3.15
2022-09-28T03:28:15.510Z,2.00
2022-09-28T03:30:43.338Z,3.20
2022-09-28T03:33:10.687Z,1.70
2022-09-28T03:35:38.801Z,3.63
2022-09-28T03:38:05.903Z,2.35
2022-09-28T03:40:37.490Z,2.95
2022-09-28T03:43:04.756Z,3.05
2022-09-28T03:45:31.985Z,2.78
2022-09-28T03:48:00.145Z,4.03
2022-09-28T03:50:27.430Z,2.65
2022-09-28T03:52:54.513Z,3.40
2022-09-28T03:55:21.647Z,1.67
2022-09-28T03:57:55.941Z,2.30
2022-09-28T04:00:23.819Z,3.92
2022-09-28T04:02:51.028Z,2.80
2022-09-28T04:05:18.086Z,2.92
2022-09-28T04:07:45.143Z,2.80
2022-09-28T04:10:12.264Z,2.88
2022-09-28T04:12:39.840Z,2.97
2022-09-28T04:15:07.469Z,3.47
2022-09-28T04:17:39.224Z,3.17
2022-09-28T04:20:09.889Z,3.55
2022-09-28T04:22:40.262Z,2.95
2022-09-28T04:25:07.890Z,3.40
2022-09-28T04:27:53.518Z,3.10
2022-09-28T04:30:21.797Z,4.47
2022-09-28T04:32:49.288Z,3.28
2022-09-28T04:35:17.294Z,4.18
2022-09-28T04:37:44.380Z,2.92
2022-09-28T04:40:11.763Z,3.58
2022-09-28T04:42:38.827Z,3.40
2022-09-28T04:45:06.597Z,3.78
2022-09-28T04:47:37.917Z,3.75
2022-09-28T04:50:27.902Z,3.75
2022-09-28T04:53:14.120Z,3.40
2022-09-28T04:55:41.210Z,5.93
2022-09-28T04:58:08.233Z,3.60
2022-09-28T05:00:35.890Z,3.53
2022-09-28T05:03:12.381Z,2.90
2022-09-28T05:05:59.731Z,3.00
2022-09-28T05:08:38.581Z,2.60
2022-09-28T05:11:08.123Z,2.45
2022-09-28T05:16:09.990Z,3.03
2022-09-28T05:18:57.285Z,2.90
2022-09-28T05:21:26.394Z,3.05
2022-09-28T05:23:56.052Z,2.92
2022-09-28T05:26:24.155Z,3.50
2022-09-28T05:28:51.262Z,3.00
2022-09-28T05:31:21.034Z,3.38
2022-09-28T05:34:03.509Z,3.20
2022-09-28T05:36:32.401Z,3.80
2022-09-28T05:38:59.520Z,2.45
2022-09-28T05:41:26.691Z,2.95
2022-09-28T05:43:54.938Z,3.97
2022-09-28T05:46:23.715Z,3.30
2022-09-28T05:48:52.552Z,3.15
2022-09-28T05:51:19.956Z,3.28
2022-09-28T05:53:47.672Z,3.47
2022-09-28T05:56:16.244Z,4.60
2022-09-28T05:58:44.978Z,3.17
2022-09-28T06:01:13.021Z,3.72
2022-09-28T06:03:40.287Z,3.60
2022-09-28T06:06:07.576Z,3.53
2022-09-28T06:08:34.788Z,3.95
2022-09-28T06:11:26.936Z,4.35
2022-09-28T06:13:56.897Z,3.92
2022-09-28T06:16:27.088Z,3.10
2022-09-28T06:18:54.356Z,2.72
2022-09-28T06:21:33.737Z,3.20
2022-09-28T06:24:01.183Z,3.55
2022-09-28T06:26:28.365Z,3.78
2022-09-28T06:28:55.494Z,3.72
2022-09-28T06:31:23.937Z,3.35
2022-09-28T06:33:52.201Z,3.10
2022-09-28T06:36:20.763Z,2.97
2022-09-28T06:38:49.843Z,3.35
2022-09-28T06:41:18.349Z,2.95
2022-09-28T06:43:48.758Z,3.17
2022-09-28T06:46:36.345Z,3.13
2022-09-28T06:49:23.810Z,3.53
2022-09-28T06:52:08.784Z,3.25
2022-09-28T06:54:54.299Z,3.50
2022-09-28T06:57:23.780Z,3.85
2022-09-28T06:59:50.867Z,3.17
2022-09-28T07:02:18.057Z,3.28
2022-09-28T07:05:13.656Z,3.60
2022-09-28T07:08:01.903Z,3.47
2022-09-28T07:10:56.288Z,4.28
2022-09-28T07:13:50.374Z,3.67
2022-09-28T07:16:25.725Z,4.22
2022-09-28T07:18:54.503Z,4.00
2022-09-28T07:21:29.260Z,3.95
2022-09-28T07:23:59.965Z,3.53
2022-09-28T07:26:45.606Z,4.35
2022-09-28T07:29:32.933Z,3.92
2022-09-28T07:32:21.727Z,3.35
2022-09-28T07:35:09.198Z,3.67
2022-09-28T07:38:03.356Z,4.18
2022-09-28T07:40:51.494Z,4.03
2022-09-28T07:43:20.650Z,4.30
2022-09-28T07:45:52.727Z,3.10
2022-09-28T07:48:20.981Z,3.38
2022-09-28T07:51:10.387Z,3.88
2022-09-28T07:53:45.784Z,3.05
2022-09-28T07:56:35.669Z,3.00
2022-09-28T07:59:09.600Z,2.75
2022-09-28T08:01:39.594Z,2.85
2022-09-28T08:04:08.929Z,3.35
2022-09-28T08:06:37.049Z,3.00
2022-09-28T08:09:05.960Z,4.32
2022-09-28T08:11:59.516Z,2.47
2022-09-28T08:14:35.789Z,3.05
2022-09-28T08:17:16.376Z,2.97
2022-09-28T08:20:10.949Z,2.40
2022-09-28T08:22:38.614Z,3.22
2022-09-28T08:25:06.213Z,2.25
2022-09-28T08:27:33.812Z,2.38
2022-09-28T08:30:01.734Z,2.67
2022-09-28T08:32:49.325Z,1.92
2022-09-28T08:35:34.642Z,2.42
2022-09-28T08:38:17.617Z,1.75
2022-09-28T08:41:12.066Z,2.03
2022-09-28T08:44:09.520Z,1.80
2022-09-28T08:47:32.354Z,1.60
2022-09-28T08:50:24.203Z,2.90
2022-09-28T08:53:55.963Z,2.03
2022-09-28T08:56:35.824Z,2.55
2022-09-28T08:59:09.366Z,1.48
2022-09-28T09:01:48.682Z,1.95
2022-09-28T09:04:17.728Z,2.10
2022-09-28T09:07:53.817Z,2.00
2022-09-28T09:10:46.155Z,1.92
2022-09-28T09:13:40.830Z,1.92
2022-09-28T09:16:33.797Z,2.20
2022-09-28T09:19:26.736Z,2.45
2022-09-28T09:22:32.327Z,2.10
2022-09-28T09:25:24.847Z,2.25
2022-09-28T09:28:28.637Z,2.30
2022-09-28T09:31:08.841Z,2.00
2022-09-28T09:34:13.586Z,2.97
2022-09-28T09:37:23.300Z,2.50
2022-09-28T09:40:53.238Z,2.85
2022-09-28T09:43:58.975Z,2.88
2022-09-28T09:46:52.131Z,3.08
2022-09-28T09:52:17.329Z,2.60
2022-09-28T09:55:08.163Z,2.47
2022-09-28T09:58:02.285Z,2.53
2022-09-28T10:00:45.206Z,2.08
2022-09-28T10:03:27.913Z,2.65
2022-09-28T10:06:07.543Z,2.50
2022-09-28T10:08:40.752Z,6.57
2022-09-28T10:11:19.403Z,6.60
2022-09-28T10:13:51.880Z,7.70
2022-09-28T10:16:39.350Z,7.47
2022-09-28T10:19:13.496Z,8.45
2022-09-28T10:22:03.057Z,2.92
2022-09-28T10:24:39.386Z,2.65
2022-09-28T10:27:13.484Z,2.30
2022-09-28T10:29:49.651Z,3.15
2022-09-28T10:32:23.815Z,3.03
2022-09-28T10:35:11.008Z,3.35
2022-09-28T10:38:03.222Z,4.15
2022-09-28T10:40:56.182Z,2.95
2022-09-28T10:43:36.575Z,2.55
2022-09-28T10:46:13.811Z,3.33
2022-09-28T10:48:54.766Z,2.58
2022-09-28T10:51:50.239Z,1.67
2022-09-28T10:54:28.344Z,2.03
2022-09-28T10:56:58.246Z,1.95
2022-09-28T10:59:39.793Z,1.60
2022-09-28T11:02:36.617Z,4.70
2022-09-28T11:05:21.112Z,11.73
2022-09-28T11:07:48.862Z,4.47
2022-09-28T11:10:26.082Z,3.42
2022-09-28T11:12:57.381Z,3.65
2022-09-28T11:15:29.670Z,3.42
2022-09-28T11:18:29.418Z,1.05
2022-09-28T11:21:27.131Z,1.58
2022-09-28T11:24:19.843Z,2.08
2022-09-28T11:26:52.511Z,2.60
2022-09-28T11:29:45.338Z,2.30
2022-09-28T11:32:26.362Z,3.65
2022-09-28T11:35:23.338Z,1.63
2022-09-28T11:38:14.963Z,1.48
2022-09-28T11:41:03.701Z,1.77
2022-09-28T11:43:45.931Z,1.20
2022-09-28T11:46:31.270Z,2.20
2022-09-28T11:49:43.669Z,1.88
2022-09-28T11:52:30.992Z,1.60
2022-09-28T11:55:06.917Z,1.15
2022-09-28T11:57:38.465Z,1.83
2022-09-28T12:00:12.828Z,2.50
2022-09-28T12:03:16.254Z,1.50
2022-09-28T12:05:55.524Z,1.73
2022-09-28T12:08:28.082Z,1.55
2022-09-28T12:11:05.400Z,1.98
2022-09-28T12:13:57.429Z,2.03
2022-09-28T12:17:07.155Z,2.60
2022-09-28T12:20:03.590Z,7.65
2022-09-28T12:22:40.442Z,4.38
2022-09-28T12:25:14.937Z,1.88
2022-09-28T12:27:48.568Z,2.13
2022-09-28T12:30:19.790Z,1.20
2022-09-28T12:32:49.013Z,2.03
2022-09-28T12:35:24.337Z,1.52
2022-09-28T12:37:54.830Z,2.55
2022-09-28T12:40:37.230Z,3.80
2022-09-28T12:43:20.042Z,2.45
2022-09-28T12:46:20.775Z,2.50
2022-09-28T12:50:13.803Z,4.15
2022-09-28T12:57:54.925Z,1.50
2022-09-28T13:00:25.195Z,1.98
2022-09-28T13:03:01.079Z,1.80
2022-09-28T13:05:28.220Z,1.80
2022-09-28T13:08:17.459Z,1.52
2022-09-28T13:10:50.205Z,2.10
2022-09-28T13:13:23.312Z,1.55
2022-09-28T13:16:10.641Z,1.70
2022-09-28T13:18:56.921Z,4.35
2022-09-28T13:21:43.812Z,5.15
2022-09-28T13:24:31.481Z,3.13
2022-09-28T13:27:05.756Z,4.87
2022-09-28T13:29:34.842Z,5.03
2022-09-28T13:32:03.377Z,4.07
2022-09-28T13:34:35.940Z,7.68
2022-09-28T13:37:09.752Z,3.35
2022-09-28T13:39:48.714Z,4.00
2022-09-28T13:42:52.687Z,2.95
2022-09-28T13:45:22.688Z,4.55
2022-09-28T13:48:13.477Z,7.75
2022-09-28T13:50:46.662Z,5.68
2022-09-28T13:53:53.011Z,2.97
2022-09-28T13:56:40.994Z,2.15
2022-09-28T13:59:27.692Z,1.80
2022-09-28T14:02:09.987Z,1.73
2022-09-28T14:05:00.357Z,1.40
2022-09-28T14:07:33.500Z,1.50
2022-09-28T14:10:42.324Z,1.65
2022-09-28T14:13:12.672Z,1.85
2022-09-28T14:15:43.769Z,1.50
2022-09-28T14:18:33.062Z,1.98
2022-09-28T14:21:27.584Z,2.15
2022-09-28T14:24:12.113Z,1.50
2022-09-28T14:26:58.350Z,1.70
2022-09-28T14:29:31.652Z,1.40
2022-09-28T14:32:09.737Z,2.10
2022-09-28T14:34:43.079Z,2.25
2022-09-28T14:37:40.830Z,3.58
2022-09-28T14:40:39.928Z,3.03
2022-09-28T14:43:25.105Z,3.03
2022-09-28T14:46:19.980Z,1.67
2022-09-28T14:48:51.007Z,2.80
2022-09-28T14:51:27.147Z,7.93
2022-09-28T14:54:00.257Z,4.90
2022-09-28T14:56:32.727Z,3.53
2022-09-28T14:59:00.781Z,2.38
2022-09-28T15:01:28.021Z,2.10
2022-09-28T15:03:59.047Z,3.17
2022-09-28T15:06:27.607Z,2.10
2022-09-28T15:08:54.719Z,3.03
2022-09-28T15:11:24.716Z,3.00
2022-09-28T15:14:06.219Z,1.95
2022-09-28T15:16:33.506Z,1.17
2022-09-28T15:19:23.823Z,0.80
2022-09-28T15:21:51.327Z,1.00
2022-09-28T15:24:33.026Z,1.90
2022-09-28T15:27:01.963Z,1.92
2022-09-28T15:29:33.296Z,1.88
2022-09-28T15:32:00.642Z,2.15
2022-09-28T15:34:52.902Z,1.63
2022-09-28T15:37:28.713Z,1.75
2022-09-28T15:39:57.863Z,1.83
2022-09-28T15:42:25.596Z,1.80
2022-09-28T15:45:22.122Z,1.25
2022-09-28T15:47:49.779Z,2.03
2022-09-28T15:50:28.998Z,2.13
2022-09-28T15:52:57.981Z,7.22
2022-09-28T15:55:30.438Z,12.00
2022-09-28T15:58:15.678Z,6.20
2022-09-28T16:00:45.082Z,5.53
2022-09-28T16:05:46.161Z,15.05
2022-09-28T16:08:25.948Z,29.67
2022-09-28T16:11:06.088Z,5.30
2022-09-28T16:13:34.156Z,4.47
2022-09-28T16:16:01.298Z,2.25
2022-09-28T16:18:30.585Z,1.95
2022-09-28T16:21:24.267Z,1.38
2022-09-28T16:23:55.566Z,1.73
2022-09-28T16:26:33.329Z,1.55
2022-09-28T16:29:05.771Z,1.10
2022-09-28T16:31:36.723Z,1.08
2022-09-28T16:34:09.556Z,1.23
2022-09-28T16:36:47.225Z,1.63
2022-09-28T16:39:18.589Z,1.27
2022-09-28T16:42:02.772Z,1.50
2022-09-28T16:44:31.764Z,2.22
2022-09-28T16:47:00.754Z,2.20
2022-09-28T16:49:31.523Z,3.45
2022-09-28T16:51:59.457Z,8.70
2022-09-28T16:54:45.263Z,6.15
2022-09-28T16:57:14.971Z,5.32
2022-09-28T16:59:42.036Z,4.55
2022-09-28T17:02:42.358Z,3.83
2022-09-28T17:05:06.878Z,6.90
2022-09-28T17:07:34.294Z,12.93
2022-09-28T17:10:01.564Z,6.32
2022-09-28T17:12:28.843Z,12.50
2022-09-28T17:14:55.993Z,31.67
2022-09-28T17:17:23.147Z,8.38
2022-09-28T17:19:50.236Z,4.10
2022-09-28T17:22:18.277Z,7.85
2022-09-28T17:24:46.091Z,8.05
2022-09-28T17:27:19.112Z,8.15
2022-09-28T17:29:46.220Z,12.70
2022-09-28T17:32:18.773Z,6.60
2022-09-28T17:34:55.865Z,5.57
2022-09-28T17:37:28.502Z,4.15
2022-09-28T17:39:55.602Z,6.40
2022-09-28T17:42:22.894Z,15.35
2022-09-28T17:44:49.973Z,22.85
2022-09-28T17:47:17.419Z,20.17
2022-09-28T17:49:46.114Z,21.17
2022-09-28T17:52:13.688Z,16.55
2022-09-28T17:54:41.175Z,8.82
2022-09-28T17:57:09.943Z,5.18
2022-09-28T17:59:36.977Z,5.63
2022-09-28T18:02:04.119Z,7.72
2022-09-28T18:04:50.767Z,4.05
2022-09-28T18:07:18.365Z,4.22
2022-09-28T18:09:45.696Z,8.52
2022-09-28T18:12:13.002Z,6.10
2022-09-28T18:14:40.097Z,2.42
2022-09-28T18:17:07.209Z,5.32
2022-09-28T18:19:34.274Z,2.83
2022-09-28T18:22:01.720Z,3.60
2022-09-28T18:24:29.299Z,12.70
2022-09-28T18:26:56.371Z,10.48
2022-09-28T18:29:23.564Z,9.82
2022-09-28T18:31:50.738Z,10.68
2022-09-28T18:34:18.019Z,7.32
2022-09-28T18:36:45.436Z,10.65
2022-09-28T18:39:12.715Z,8.77
2022-09-28T18:41:39.900Z,12.07
2022-09-28T18:44:07.047Z,12.35
2022-09-28T18:46:36.607Z,16.27
2022-09-28T18:49:04.632Z,12.43
2022-09-28T18:51:31.734Z,9.98
2022-09-28T18:54:00.783Z,15.15
2022-09-28T18:56:27.847Z,45.55
2022-09-28T18:58:54.912Z,25.98
2022-09-28T19:01:30.807Z,9.23
2022-09-28T19:04:05.920Z,6.57
2022-09-28T19:06:34.547Z,31.00
2022-09-28T19:09:01.745Z,15.73
2022-09-28T19:11:28.898Z,8.43
2022-09-28T19:13:56.243Z,13.20
2022-09-28T19:16:25.849Z,10.48
2022-09-28T19:21:21.020Z,5.60
2022-09-28T19:23:49.706Z,5.28
2022-09-28T19:26:24.126Z,5.13
2022-09-28T19:28:51.691Z,4.30
2022-09-28T19:31:19.266Z,2.55
2022-09-28T19:33:46.748Z,2.10
2022-09-28T19:36:18.384Z,2.20
2022-09-28T19:38:46.247Z,1.73
2022-09-28T19:41:44.837Z,2.13
2022-09-28T19:44:19.277Z,1.83
2022-09-28T19:46:46.750Z,1.75
2022-09-28T19:49:19.297Z,1.83
2022-09-28T19:52:12.024Z,1.88
2022-09-28T19:54:37.381Z,2.20
2022-09-28T19:57:07.606Z,3.65
2022-09-28T19:59:36.782Z,2.92
2022-09-28T20:02:05.917Z,2.35
2022-09-28T20:04:33.120Z,1.80
2022-09-28T20:07:00.261Z,2.55
2022-09-28T20:09:27.376Z,2.60
2022-09-28T20:11:54.861Z,1.63
2022-09-28T20:14:24.463Z,2.47
2022-09-28T20:16:53.583Z,1.77
2022-09-28T20:19:21.808Z,1.65
2022-09-28T20:21:49.546Z,1.60
2022-09-28T20:24:17.109Z,1.70
2022-09-28T20:26:45.714Z,1.40
2022-09-28T20:29:13.049Z,1.42
2022-09-28T20:31:40.453Z,1.10
2022-09-28T20:34:07.619Z,1.10
2022-09-28T20:36:34.719Z,1.60
2022-09-28T20:39:02.691Z,1.20
2022-09-28T20:41:36.504Z,1.45
2022-09-28T20:44:06.396Z,1.80
2022-09-28T20:46:37.929Z,1.40
2022-09-28T20:49:05.322Z,1.92
2022-09-28T20:51:32.523Z,1.98
2022-09-28T20:54:00.358Z,2.85
2022-09-28T20:56:30.470Z,2.45
2022-09-28T20:58:57.710Z,4.82
2022-09-28T21:01:27.303Z,3.28
2022-09-28T21:03:59.202Z,3.05
2022-09-28T21:06:29.920Z,2.35
2022-09-28T21:08:57.579Z,1.80
2022-09-28T21:11:26.795Z,1.95
2022-09-28T21:13:55.957Z,1.83
2022-09-28T21:16:23.032Z,1.35
2022-09-28T21:18:50.182Z,2.00
2022-09-28T21:21:19.150Z,1.45
2022-09-28T21:23:47.071Z,1.52
2022-09-28T21:26:18.828Z,1.50
2022-09-28T21:28:46.572Z,1.90
2022-09-28T21:31:14.493Z,1.88
2022-09-28T21:33:41.686Z,1.42
2022-09-28T21:36:09.849Z,1.52
2022-09-28T21:38:36.969Z,1.02
2022-09-28T21:41:04.214Z,1.13
2022-09-28T21:43:32.400Z,1.10
2022-09-28T21:45:59.710Z,1.50
2022-09-28T21:48:28.494Z,4.25
2022-09-28T21:50:57.681Z,4.73
2022-09-28T21:53:26.259Z,4.43
2022-09-28T21:55:53.902Z,3.83
2022-09-28T21:58:24.613Z,2.45
2022-09-28T22:00:53.690Z,4.13
2022-09-28T22:03:24.487Z,3.85
2022-09-28T22:05:52.319Z,3.28
2022-09-28T22:08:20.667Z,2.13
2022-09-28T22:11:06.804Z,2.42
2022-09-28T22:13:44.153Z,2.10
2022-09-28T22:16:13.135Z,1.75
2022-09-28T22:18:40.752Z,1.50
2022-09-28T22:21:15.161Z,1.52
2022-09-28T22:23:42.367Z,3.25
2022-09-28T22:26:17.654Z,2.58
2022-09-28T22:28:50.050Z,3.75
2022-09-28T22:31:19.233Z,3.70
2022-09-28T22:33:46.616Z,3.25
2022-09-28T22:36:16.809Z,2.17
2022-09-28T22:38:44.781Z,1.98
2022-09-28T22:41:15.792Z,1.83
2022-09-28T22:43:43.707Z,1.92
2022-09-28T22:46:13.153Z,1.63
2022-09-28T22:48:42.189Z,1.58
2022-09-28T22:51:09.763Z,1.67
2022-09-28T22:53:36.919Z,2.03
2022-09-28T22:56:05.493Z,1.65
2022-09-28T22:58:34.066Z,5.37
2022-09-28T23:01:10.238Z,4.82
2022-09-28T23:03:39.955Z,5.68
2022-09-28T23:06:07.977Z,3.03
2022-09-28T23:08:35.677Z,2.90
2022-09-28T23:11:02.884Z,2.42
2022-09-28T23:13:31.054Z,1.95
2022-09-28T23:16:00.017Z,1.80
2022-09-28T23:18:30.034Z,1.90
2022-09-28T23:21:03.004Z,1.70
2022-09-28T23:23:30.198Z,1.48
2022-09-28T23:25:57.253Z,1.77
2022-09-28T23:28:26.403Z,1.92
2022-09-28T23:30:53.629Z,2.10
2022-09-28T23:33:22.276Z,1.90
2022-09-28T23:35:49.755Z,2.13
2022-09-28T23:38:18.166Z,1.38
2022-09-28T23:40:48.390Z,1.67
2022-09-28T23:43:15.541Z,1.67
2022-09-28T23:45:43.961Z,1.50
2022-09-28T23:48:12.735Z,1.95
2022-09-28T23:50:39.736Z,3.10
2022-09-28T23:53:06.859Z,2.33
2022-09-28T23:55:33.898Z,3.13
2022-09-28T23:58:01.125Z,5.07
